createdAt,value
2022-11-24T00:02:31.525Z,11.77
2022-11-24T00:05:38.380Z,12.13
2022-11-24T00:08:41.879Z,11.57
2022-11-24T00:11:43.537Z,11.77
2022-11-24T00:14:46.990Z,12.00
2022-11-24T00:17:48.571Z,12.73
2022-11-24T00:20:53.066Z,12.13
2022-11-24T00:23:55.043Z,12.03
2022-11-24T00:26:56.580Z,12.82
2022-11-24T00:29:59.501Z,12.07
2022-11-24T00:33:03.429Z,12.43
2022-11-24T00:36:05.421Z,11.97
2022-11-24T00:39:14.806Z,13.87
2022-11-24T00:42:17.032Z,12.95
2022-11-24T00:45:18.629Z,13.63
2022-11-24T00:48:20.310Z,13.27
2022-11-24T00:51:24.909Z,13.70
2022-11-24T00:54:26.452Z,13.87
2022-11-24T00:57:27.995Z,13.25
2022-11-24T01:00:29.681Z,14.07
2022-11-24T01:03:31.606Z,13.20
2022-11-24T01:06:35.226Z,13.70
2022-11-24T01:09:37.766Z,12.17
2022-11-24T01:12:39.698Z,12.57
2022-11-24T01:15:41.411Z,12.77
2022-11-24T01:18:43.197Z,13.00
2022-11-24T01:21:45.025Z,12.83
2022-11-24T01:24:46.669Z,13.23
2022-11-24T01:27:48.234Z,13.18
2022-11-24T01:31:05.240Z,13.90
2022-11-24T01:34:07.162Z,13.05
2022-11-24T01:37:08.782Z,12.40
2022-11-24T01:40:10.995Z,12.77
2022-11-24T01:43:21.394Z,11.80
2022-11-24T01:46:45.158Z,12.70
2022-11-24T01:49:50.857Z,14.27
2022-11-24T01:52:55.419Z,14.40
2022-11-24T01:55:58.030Z,12.50
2022-11-24T01:59:01.739Z,12.77
2022-11-24T02:02:03.869Z,12.73
2022-11-24T02:05:15.745Z,13.60
2022-11-24T02:08:42.436Z,12.67
2022-11-24T02:11:44.674Z,14.23
2022-11-24T02:14:46.371Z,14.05
2022-11-24T02:17:48.014Z,13.45
2022-11-24T02:20:49.641Z,14.02
2022-11-24T02:24:13.296Z,14.77
2022-11-24T02:27:14.912Z,13.43
2022-11-24T02:30:17.625Z,12.52
2022-11-24T02:33:20.816Z,13.25
2022-11-24T02:36:22.417Z,11.98
2022-11-24T02:39:24.127Z,12.67
2022-11-24T02:42:28.387Z,12.67
2022-11-24T02:45:31.367Z,12.88
2022-11-24T02:48:32.993Z,12.07
2022-11-24T02:51:34.704Z,12.82
2022-11-24T02:54:36.702Z,12.23
2022-11-24T02:57:38.610Z,13.63
2022-11-24T03:00:41.350Z,11.07
2022-11-24T03:03:43.526Z,11.43
2022-11-24T03:06:45.113Z,11.55
2022-11-24T03:09:47.095Z,11.63
2022-11-24T03:12:48.682Z,11.20
2022-11-24T03:15:50.268Z,12.95
2022-11-24T03:18:52.975Z,12.32
2022-11-24T03:21:54.558Z,13.38
2022-11-24T03:24:56.124Z,11.13
2022-11-24T03:27:58.283Z,11.60
2022-11-24T03:30:59.956Z,12.35
2022-11-24T03:34:01.621Z,13.15
2022-11-24T03:37:03.240Z,12.43
2022-11-24T03:40:05.341Z,12.57
2022-11-24T03:43:06.931Z,13.10
2022-11-24T03:46:08.674Z,13.85
2022-11-24T03:49:10.547Z,13.57
2022-11-24T03:52:12.365Z,13.55
2022-11-24T03:55:14.002Z,12.00
2022-11-24T03:58:15.644Z,11.30
2022-11-24T04:01:17.279Z,12.98
2022-11-24T04:04:19.574Z,12.23
2022-11-24T04:07:21.296Z,11.70
2022-11-24T04:10:26.296Z,11.50
2022-11-24T04:13:28.504Z,11.60
2022-11-24T04:16:30.146Z,9.95
2022-11-24T04:19:31.716Z,10.50
2022-11-24T04:22:33.499Z,10.32
2022-11-24T04:25:35.784Z,10.13
2022-11-24T04:28:38.515Z,10.40
2022-11-24T04:31:40.105Z,10.57
2022-11-24T04:34:41.736Z,9.65
2022-11-24T04:37:43.331Z,10.25
2022-11-24T04:40:44.974Z,9.97
2022-11-24T04:43:49.373Z,9.80
2022-11-24T04:46:51.053Z,9.75
2022-11-24T04:49:53.589Z,8.75
2022-11-24T04:52:55.164Z,9.25
2022-11-24T04:55:56.721Z,9.37
2022-11-24T04:58:58.375Z,9.57
2022-11-24T05:01:59.966Z,10.30
2022-11-24T05:05:01.670Z,11.32
2022-11-24T05:08:03.482Z,11.07
2022-11-24T05:11:06.773Z,11.10
2022-11-24T05:14:08.423Z,12.43
2022-11-24T05:17:09.998Z,14.35
2022-11-24T05:20:11.663Z,15.45
2022-11-24T05:23:13.314Z,14.88
2022-11-24T05:26:14.881Z,13.37
2022-11-24T05:29:16.517Z,15.27
2022-11-24T05:32:18.131Z,17.05
2022-11-24T05:35:19.765Z,17.58
2022-11-24T05:38:22.918Z,19.02
2022-11-24T05:41:24.491Z,20.23
2022-11-24T05:44:26.074Z,19.97
2022-11-24T05:47:27.729Z,19.77
2022-11-24T05:50:29.398Z,19.65
2022-11-24T05:53:31.030Z,23.33
2022-11-24T05:56:32.623Z,23.40
2022-11-24T05:59:34.546Z,23.57
2022-11-24T06:02:36.252Z,23.30
2022-11-24T06:05:38.249Z,25.27
2022-11-24T06:08:39.898Z,22.58
2022-11-24T06:11:41.691Z,23.60
2022-11-24T06:14:43.378Z,23.83
2022-11-24T06:17:52.285Z,23.25
2022-11-24T06:21:09.784Z,22.73
2022-11-24T06:24:12.796Z,23.77
2022-11-24T06:27:14.591Z,22.63
2022-11-24T06:30:18.263Z,23.80
2022-11-24T06:33:20.474Z,23.90
2022-11-24T06:36:22.390Z,24.75
2022-11-24T06:39:24.191Z,24.63
2022-11-24T06:42:25.771Z,24.30
2022-11-24T06:45:30.493Z,24.07
2022-11-24T06:48:33.913Z,24.45
2022-11-24T06:51:35.685Z,22.38
2022-11-24T06:54:37.528Z,23.10
2022-11-24T06:57:39.214Z,23.37
2022-11-24T07:00:40.918Z,21.97
2022-11-24T07:03:42.742Z,22.88
2022-11-24T07:06:45.002Z,23.15
2022-11-24T07:09:46.846Z,23.33
2022-11-24T07:12:48.810Z,25.67
2022-11-24T07:15:50.897Z,23.77
2022-11-24T07:18:54.054Z,24.02
2022-11-24T07:21:55.806Z,22.73
2022-11-24T07:24:57.438Z,24.25
2022-11-24T07:27:59.896Z,24.63
2022-11-24T07:31:09.077Z,23.23
2022-11-24T07:34:10.984Z,23.20
2022-11-24T07:37:12.541Z,23.70
2022-11-24T07:40:14.764Z,24.67
2022-11-24T07:43:20.184Z,23.57
2022-11-24T07:46:22.210Z,23.40
2022-11-24T07:49:24.123Z,22.88
2022-11-24T07:52:26.868Z,23.13
2022-11-24T07:55:28.554Z,22.65
2022-11-24T07:58:33.114Z,24.83
2022-11-24T08:01:35.186Z,23.33
2022-11-24T08:04:37.230Z,26.33
2022-11-24T08:07:39.352Z,23.25
2022-11-24T08:10:41.012Z,21.63
2022-11-24T08:13:43.245Z,22.63
2022-11-24T08:16:44.862Z,21.70
2022-11-24T08:19:46.505Z,22.30
2022-11-24T08:22:48.166Z,22.33
2022-11-24T08:25:54.154Z,22.40
2022-11-24T08:28:59.505Z,22.17
2022-11-24T08:32:01.127Z,23.43
2022-11-24T08:35:13.868Z,24.20
2022-11-24T08:38:17.325Z,23.27
2022-11-24T08:41:19.053Z,21.92
2022-11-24T08:44:20.672Z,21.43
2022-11-24T08:47:22.862Z,22.23
2022-11-24T08:50:26.374Z,22.05
2022-11-24T08:53:28.362Z,21.17
2022-11-24T08:56:32.545Z,21.13
2022-11-24T08:59:34.323Z,23.13
2022-11-24T09:02:36.137Z,22.43
2022-11-24T09:05:53.703Z,20.85
2022-11-24T09:08:55.726Z,20.63
2022-11-24T09:11:57.411Z,20.02
2022-11-24T09:14:59.139Z,20.10
2022-11-24T09:18:00.729Z,20.97
2022-11-24T09:21:09.572Z,19.98
2022-11-24T09:24:11.397Z,19.33
2022-11-24T09:27:13.017Z,19.10
2022-11-24T09:30:16.034Z,19.57
2022-11-24T09:33:17.755Z,19.60
2022-11-24T09:36:20.419Z,19.23
2022-11-24T09:39:22.079Z,18.83
2022-11-24T09:42:35.846Z,17.45
2022-11-24T09:46:05.389Z,20.57
2022-11-24T09:49:14.100Z,19.23
2022-11-24T09:52:29.134Z,17.73
2022-11-24T09:55:55.184Z,21.45
2022-11-24T09:59:17.799Z,21.95
2022-11-24T10:02:19.486Z,19.67
2022-11-24T10:05:26.036Z,17.90
2022-11-24T10:08:39.882Z,16.92
2022-11-24T10:11:52.205Z,15.88
2022-11-24T10:15:05.867Z,17.20
2022-11-24T10:18:31.394Z,20.97
2022-11-24T10:22:07.201Z,17.20
2022-11-24T10:25:17.085Z,16.38
2022-11-24T10:28:19.151Z,16.98
2022-11-24T10:31:35.264Z,17.65
2022-11-24T10:34:41.595Z,17.53
2022-11-24T10:38:21.688Z,18.87
2022-11-24T10:41:42.752Z,17.88
2022-11-24T10:44:44.449Z,20.90
2022-11-24T10:47:46.854Z,18.10
2022-11-24T10:50:48.607Z,16.97
2022-11-24T10:53:55.228Z,17.73
2022-11-24T10:56:56.795Z,19.23
2022-11-24T10:59:59.260Z,19.42
2022-11-24T11:03:17.548Z,19.05
2022-11-24T11:06:30.201Z,18.77
2022-11-24T11:09:31.909Z,18.33
2022-11-24T11:12:44.084Z,17.40
2022-11-24T11:15:46.411Z,18.08
2022-11-24T11:18:49.357Z,21.40
2022-11-24T11:22:19.950Z,24.83
2022-11-24T11:25:30.958Z,20.40
2022-11-24T11:28:32.703Z,19.13
2022-11-24T11:31:35.673Z,20.35
2022-11-24T11:34:37.770Z,19.15
2022-11-24T11:37:40.363Z,20.57
2022-11-24T11:40:43.776Z,18.83
2022-11-24T11:43:47.013Z,18.90
2022-11-24T11:46:48.757Z,21.67
2022-11-24T11:49:50.841Z,20.60
2022-11-24T11:53:23.403Z,20.43
2022-11-24T11:56:30.388Z,18.30
2022-11-24T11:59:41.849Z,17.90
2022-11-24T12:03:11.428Z,18.45
2022-11-24T12:06:34.251Z,19.30
2022-11-24T12:10:03.038Z,18.97
2022-11-24T12:13:33.728Z,17.37
2022-11-24T12:16:45.542Z,18.25
2022-11-24T12:20:02.270Z,17.50
2022-11-24T12:23:31.202Z,17.55
2022-11-24T12:26:53.104Z,17.03
2022-11-24T12:30:12.645Z,20.07
2022-11-24T12:33:34.166Z,18.45
2022-11-24T12:36:41.269Z,17.60
2022-11-24T12:39:56.983Z,17.77
2022-11-24T12:43:20.102Z,18.70
2022-11-24T12:46:47.135Z,15.43
2022-11-24T12:50:07.216Z,15.23
2022-11-24T12:53:15.982Z,16.50
2022-11-24T12:56:23.379Z,15.95
2022-11-24T12:59:54.311Z,15.20
2022-11-24T13:03:12.370Z,15.93
2022-11-24T13:06:27.378Z,17.38
2022-11-24T13:09:29.011Z,15.27
2022-11-24T13:12:30.753Z,17.73
2022-11-24T13:16:07.095Z,15.80
2022-11-24T13:19:19.631Z,13.97
2022-11-24T13:22:25.668Z,13.35
2022-11-24T13:25:35.075Z,14.32
2022-11-24T13:29:13.386Z,14.65
2022-11-24T13:32:31.968Z,13.87
2022-11-24T13:35:33.579Z,12.93
2022-11-24T13:39:02.393Z,13.27
2022-11-24T13:42:04.110Z,13.98
2022-11-24T13:45:45.052Z,13.32
2022-11-24T13:48:46.983Z,11.73
2022-11-24T13:51:48.539Z,12.67
2022-11-24T13:54:50.461Z,12.68
2022-11-24T13:57:56.872Z,13.95
2022-11-24T14:01:12.052Z,16.15
2022-11-24T14:04:32.507Z,15.07
2022-11-24T14:07:34.732Z,17.90
2022-11-24T14:10:37.973Z,14.40
2022-11-24T14:13:39.578Z,12.80
2022-11-24T14:16:41.142Z,14.90
2022-11-24T14:19:44.742Z,12.10
2022-11-24T14:22:46.427Z,11.90
2022-11-24T14:25:52.656Z,13.65
2022-11-24T14:29:03.708Z,14.48
2022-11-24T14:32:16.333Z,14.05
2022-11-24T14:35:29.989Z,15.07
2022-11-24T14:38:32.051Z,13.20
2022-11-24T14:41:33.916Z,13.82
2022-11-24T14:44:47.954Z,12.68
2022-11-24T14:47:49.874Z,15.82
2022-11-24T14:50:51.974Z,15.30
2022-11-24T14:54:01.048Z,11.90
2022-11-24T14:57:05.277Z,13.30
2022-11-24T15:00:15.338Z,12.27
2022-11-24T15:03:19.786Z,13.40
2022-11-24T15:06:21.464Z,10.23
2022-11-24T15:09:32.847Z,12.17
2022-11-24T15:12:39.405Z,14.20
2022-11-24T15:15:49.254Z,13.77
2022-11-24T15:19:03.310Z,13.32
2022-11-24T15:22:36.111Z,13.53
2022-11-24T15:25:37.755Z,12.60
2022-11-24T15:28:40.103Z,11.85
2022-11-24T15:31:45.245Z,9.55
2022-11-24T15:34:49.385Z,17.42
2022-11-24T15:37:52.364Z,11.07
2022-11-24T15:40:57.680Z,11.67
2022-11-24T15:43:59.403Z,10.18
2022-11-24T15:47:01.056Z,11.30
2022-11-24T15:50:02.811Z,12.20
2022-11-24T15:53:05.662Z,10.90
2022-11-24T15:56:13.371Z,10.33
2022-11-24T15:59:20.249Z,10.50
2022-11-24T16:02:22.675Z,10.13
2022-11-24T16:05:24.312Z,11.07
2022-11-24T16:08:26.067Z,18.50
2022-11-24T16:11:27.717Z,11.60
2022-11-24T16:14:30.024Z,11.27
2022-11-24T16:17:31.636Z,13.13
2022-11-24T16:20:35.967Z,12.63
2022-11-24T16:23:38.129Z,13.07
2022-11-24T16:26:39.779Z,11.13
2022-11-24T16:29:41.454Z,11.50
2022-11-24T16:32:43.321Z,10.80
2022-11-24T16:35:48.501Z,11.23
2022-11-24T16:38:50.463Z,10.50
2022-11-24T16:41:52.294Z,10.57
2022-11-24T16:44:54.145Z,9.85
2022-11-24T16:47:55.922Z,9.30
2022-11-24T16:51:05.690Z,10.35
2022-11-24T16:54:08.963Z,10.20
2022-11-24T16:57:14.957Z,10.23
2022-11-24T17:00:17.491Z,12.95
2022-11-24T17:03:19.122Z,11.52
2022-11-24T17:06:21.131Z,10.65
2022-11-24T17:09:23.193Z,11.20
2022-11-24T17:12:24.841Z,11.47
2022-11-24T17:15:33.604Z,10.32
2022-11-24T17:18:36.783Z,10.65
2022-11-24T17:21:38.737Z,10.20
2022-11-24T17:24:40.338Z,11.07
2022-11-24T17:27:41.932Z,10.37
2022-11-24T17:30:43.556Z,9.80
2022-11-24T17:33:45.230Z,9.50
2022-11-24T17:36:47.109Z,9.93
2022-11-24T17:40:05.999Z,14.13
2022-11-24T17:43:11.644Z,12.20
2022-11-24T17:46:13.362Z,12.48
2022-11-24T17:49:15.157Z,13.57
2022-11-24T17:52:18.154Z,11.93
2022-11-24T17:55:19.939Z,11.13
2022-11-24T17:58:22.154Z,13.33
2022-11-24T18:01:24.363Z,11.50
2022-11-24T18:04:26.304Z,10.07
2022-11-24T18:07:28.032Z,10.00
2022-11-24T18:10:31.901Z,10.83
2022-11-24T18:13:55.625Z,19.23
2022-11-24T18:16:55.728Z,13.50
2022-11-24T18:19:57.549Z,12.05
2022-11-24T18:23:05.968Z,11.80
2022-11-24T18:26:10.330Z,12.10
2022-11-24T18:29:12.278Z,11.43
2022-11-24T18:32:14.156Z,11.38
2022-11-24T18:35:16.254Z,10.00
2022-11-24T18:38:18.294Z,10.35
2022-11-24T18:41:21.071Z,9.63
2022-11-24T18:44:22.649Z,9.33
2022-11-24T18:47:24.540Z,9.85
2022-11-24T18:50:26.555Z,11.35
2022-11-24T18:53:28.918Z,16.13
2022-11-24T18:56:30.901Z,12.20
2022-11-24T18:59:32.986Z,13.77
2022-11-24T19:02:34.894Z,13.85
2022-11-24T19:05:36.795Z,13.65
2022-11-24T19:08:38.842Z,12.48
2022-11-24T19:11:43.448Z,12.83
2022-11-24T19:14:45.337Z,13.07
2022-11-24T19:17:47.525Z,13.80
2022-11-24T19:20:49.702Z,16.23
2022-11-24T19:23:51.691Z,17.77
2022-11-24T19:26:54.420Z,13.13
2022-11-24T19:29:56.388Z,14.23
2022-11-24T19:32:58.343Z,13.93
2022-11-24T19:36:09.081Z,12.48
2022-11-24T19:39:15.494Z,13.18
2022-11-24T19:42:18.299Z,12.67
2022-11-24T19:45:20.178Z,12.03
2022-11-24T19:48:22.033Z,14.77
2022-11-24T19:51:35.545Z,13.48
2022-11-24T19:54:37.670Z,12.13
2022-11-24T19:57:40.226Z,11.90
2022-11-24T20:00:41.933Z,11.40
2022-11-24T20:03:45.441Z,11.73
2022-11-24T20:06:48.112Z,10.27
2022-11-24T20:09:49.978Z,10.85
2022-11-24T20:12:51.497Z,11.47
2022-11-24T20:15:53.393Z,10.93
2022-11-24T20:19:00.401Z,11.32
2022-11-24T20:22:02.399Z,10.50
2022-11-24T20:25:04.447Z,10.38
2022-11-24T20:28:06.465Z,10.03
2022-11-24T20:31:14.900Z,11.00
2022-11-24T20:34:17.145Z,11.57
2022-11-24T20:37:18.917Z,10.77
2022-11-24T20:40:20.863Z,9.70
2022-11-24T20:43:22.698Z,9.97
2022-11-24T20:46:27.369Z,8.80
2022-11-24T20:49:29.779Z,10.13
2022-11-24T20:52:31.665Z,9.55
2022-11-24T20:55:34.467Z,10.73
2022-11-24T20:58:37.463Z,11.07
2022-11-24T21:01:42.800Z,10.47
2022-11-24T21:04:44.715Z,10.75
2022-11-24T21:07:46.694Z,11.45
2022-11-24T21:10:56.013Z,11.77
2022-11-24T21:13:58.102Z,13.00
2022-11-24T21:16:59.918Z,12.07
2022-11-24T21:20:01.706Z,12.23
2022-11-24T21:23:04.998Z,11.65
2022-11-24T21:26:12.988Z,12.75
2022-11-24T21:29:22.261Z,12.23
2022-11-24T21:32:25.086Z,12.87
2022-11-24T21:35:26.690Z,12.80
2022-11-24T21:38:28.278Z,13.25
2022-11-24T21:41:32.785Z,13.65
2022-11-24T21:44:35.018Z,13.03
2022-11-24T21:47:37.625Z,12.23
2022-11-24T21:50:39.242Z,11.95
2022-11-24T21:53:41.586Z,13.68
2022-11-24T21:56:43.219Z,12.70
2022-11-24T21:59:45.064Z,11.83
2022-11-24T22:02:47.339Z,12.63
2022-11-24T22:05:56.414Z,14.10
2022-11-24T22:08:57.982Z,13.57
2022-11-24T22:12:00.610Z,14.23
2022-11-24T22:15:02.236Z,13.70
2022-11-24T22:18:05.077Z,13.40
2022-11-24T22:21:10.260Z,11.15
2022-11-24T22:24:11.965Z,12.68
2022-11-24T22:27:13.543Z,11.77
2022-11-24T22:30:15.380Z,11.87
2022-11-24T22:33:16.976Z,11.37
2022-11-24T22:36:22.638Z,12.40
2022-11-24T22:39:24.241Z,11.82
2022-11-24T22:42:25.869Z,12.82
2022-11-24T22:45:27.457Z,12.97
2022-11-24T22:48:29.087Z,13.37
2022-11-24T22:51:33.032Z,12.52
2022-11-24T22:54:34.940Z,12.05
2022-11-24T22:57:36.717Z,13.00
2022-11-24T23:00:38.874Z,13.43
2022-11-24T23:03:40.907Z,12.47
2022-11-24T23:06:43.038Z,12.90
2022-11-24T23:09:44.845Z,12.27
2022-11-24T23:12:46.430Z,12.63
2022-11-24T23:15:47.969Z,13.33
2022-11-24T23:18:53.730Z,13.43
2022-11-24T23:21:55.701Z,12.95
2022-11-24T23:24:57.301Z,13.30
2022-11-24T23:27:58.912Z,12.85
2022-11-24T23:31:04.982Z,13.30
2022-11-24T23:34:06.732Z,13.47
2022-11-24T23:37:08.409Z,13.35
2022-11-24T23:40:10.341Z,13.95
2022-11-24T23:43:11.887Z,13.13
2022-11-24T23:46:20.257Z,13.60
2022-11-24T23:49:21.850Z,15.27
2022-11-24T23:52:23.472Z,15.55
2022-11-24T23:55:25.057Z,15.57
2022-11-24T23:58:26.751Z,15.40
